sensor_id;sensor_type;location;lat;lon;timestamp;pressure;altitude;pressure_sealevel;temperature;humidity
42727;BME280;28372;56.832;60.658;2023-06-24T00:00:01;97270.41;;;15.73;44.26
42727;BME280;28372;56.832;60.658;2023-06-24T00:02:34;97272.38;;;15.73;45.10
42727;BME280;28372;56.832;60.658;2023-06-24T00:05:05;97275.16;;;15.69;44.76
42727;BME280;28372;56.832;60.658;2023-06-24T00:07:34;97279.06;;;15.68;45.00
42727;BME280;28372;56.832;60.658;2023-06-24T00:10:13;97280.19;;;15.71;44.74
42727;BME280;28372;56.832;60.658;2023-06-24T00:12:45;97278.25;;;15.71;44.85
42727;BME280;28372;56.832;60.658;2023-06-24T00:15:12;97279.41;;;15.70;44.85
42727;BME280;28372;56.832;60.658;2023-06-24T00:17:40;97281.09;;;15.64;45.01
42727;BME280;28372;56.832;60.658;2023-06-24T00:20:09;97275.28;;;15.62;44.95
42727;BME280;28372;56.832;60.658;2023-06-24T00:22:41;97269.81;;;15.62;44.46
42727;BME280;28372;56.832;60.658;2023-06-24T00:25:16;97273.34;;;15.63;44.81
42727;BME280;28372;56.832;60.658;2023-06-24T00:27:45;97268.41;;;15.54;44.93
42727;BME280;28372;56.832;60.658;2023-06-24T00:30:13;97272.63;;;15.58;45.09
42727;BME280;28372;56.832;60.658;2023-06-24T00:32:41;97279.59;;;15.59;45.19
42727;BME280;28372;56.832;60.658;2023-06-24T00:35:09;97282.13;;;15.50;45.47
42727;BME280;28372;56.832;60.658;2023-06-24T00:37:40;97277.16;;;15.45;45.37
42727;BME280;28372;56.832;60.658;2023-06-24T00:40:10;97281.00;;;15.48;45.39
42727;BME280;28372;56.832;60.658;2023-06-24T00:42:38;97279.44;;;15.47;45.51
42727;BME280;28372;56.832;60.658;2023-06-24T00:45:06;97283.06;;;15.40;45.66
42727;BME280;28372;56.832;60.658;2023-06-24T00:47:34;97277.97;;;15.42;45.60
42727;BME280;28372;56.832;60.658;2023-06-24T00:50:02;97285.06;;;15.36;45.70
42727;BME280;28372;56.832;60.658;2023-06-24T00:52:30;97280.84;;;15.35;45.60
42727;BME280;28372;56.832;60.658;2023-06-24T00:54:59;97278.88;;;15.35;45.66
42727;BME280;28372;56.832;60.658;2023-06-24T00:57:30;97280.03;;;15.34;45.92
42727;BME280;28372;56.832;60.658;2023-06-24T00:59:59;97287.41;;;15.37;45.82
42727;BME280;28372;56.832;60.658;2023-06-24T01:02:30;97279.63;;;15.36;45.49
42727;BME280;28372;56.832;60.658;2023-06-24T01:05:00;97276.16;;;15.35;45.84
42727;BME280;28372;56.832;60.658;2023-06-24T01:07:31;97284.97;;;15.43;46.12
42727;BME280;28372;56.832;60.658;2023-06-24T01:09:59;97280.88;;;15.31;45.67
42727;BME280;28372;56.832;60.658;2023-06-24T01:12:29;97282.84;;;15.31;45.35
42727;BME280;28372;56.832;60.658;2023-06-24T01:14:57;97280.53;;;15.29;45.65
42727;BME280;28372;56.832;60.658;2023-06-24T01:17:33;97282.19;;;15.47;46.19
42727;BME280;28372;56.832;60.658;2023-06-24T01:39:42;97274.22;;;16.00;44.76
42727;BME280;28372;56.832;60.658;2023-06-24T01:42:16;97276.47;;;16.05;44.84
42727;BME280;28372;56.832;60.658;2023-06-24T01:44:47;97280.66;;;16.09;44.75
42727;BME280;28372;56.832;60.658;2023-06-24T01:47:19;97281.63;;;16.19;44.89
42727;BME280;28372;56.832;60.658;2023-06-24T01:49:51;97276.44;;;16.25;44.55
42727;BME280;28372;56.832;60.658;2023-06-24T01:52:23;97277.41;;;16.35;44.30
42727;BME280;28372;56.832;60.658;2023-06-24T01:54:55;97276.47;;;16.41;43.80
42727;BME280;28372;56.832;60.658;2023-06-24T01:57:24;97279.91;;;16.46;43.70
42727;BME280;28372;56.832;60.658;2023-06-24T01:59:54;97277.00;;;16.53;43.84
42727;BME280;28372;56.832;60.658;2023-06-24T02:02:25;97278.31;;;16.65;43.51
42727;BME280;28372;56.832;60.658;2023-06-24T02:04:54;97276.63;;;16.71;42.77
42727;BME280;28372;56.832;60.658;2023-06-24T02:07:23;97282.59;;;16.82;43.11
42727;BME280;28372;56.832;60.658;2023-06-24T02:09:54;97272.28;;;16.90;42.90
42727;BME280;28372;56.832;60.658;2023-06-24T02:12:23;97273.91;;;17.04;42.79
42727;BME280;28372;56.832;60.658;2023-06-24T02:14:52;97277.00;;;17.06;42.27
42727;BME280;28372;56.832;60.658;2023-06-24T02:17:23;97275.22;;;17.16;42.09
42727;BME280;28372;56.832;60.658;2023-06-24T02:19:53;97282.28;;;17.29;42.17
42727;BME280;28372;56.832;60.658;2023-06-24T02:22:22;97280.47;;;17.39;41.73
42727;BME280;28372;56.832;60.658;2023-06-24T02:24:53;97273.19;;;17.49;41.48
42727;BME280;28372;56.832;60.658;2023-06-24T02:27:21;97275.22;;;17.61;41.16
42727;BME280;28372;56.832;60.658;2023-06-24T02:29:51;97273.75;;;17.73;41.13
42727;BME280;28372;56.832;60.658;2023-06-24T02:32:19;97276.16;;;17.84;40.98
42727;BME280;28372;56.832;60.658;2023-06-24T02:34:46;97277.88;;;17.94;40.76
42727;BME280;28372;56.832;60.658;2023-06-24T02:37:14;97281.53;;;18.04;40.42
42727;BME280;28372;56.832;60.658;2023-06-24T02:39:42;97276.59;;;18.12;40.33
42727;BME280;28372;56.832;60.658;2023-06-24T02:42:11;97280.16;;;18.25;40.24
42727;BME280;28372;56.832;60.658;2023-06-24T02:44:40;97285.84;;;18.44;40.38
42727;BME280;28372;56.832;60.658;2023-06-24T02:47:11;97279.50;;;18.60;39.97
42727;BME280;28372;56.832;60.658;2023-06-24T02:49:42;97286.88;;;18.76;39.26
42727;BME280;28372;56.832;60.658;2023-06-24T02:52:14;97276.25;;;18.91;39.34
42727;BME280;28372;56.832;60.658;2023-06-24T02:54:43;97279.75;;;19.04;39.04
42727;BME280;28372;56.832;60.658;2023-06-24T02:57:30;97276.88;;;19.21;38.94
42727;BME280;28372;56.832;60.658;2023-06-24T03:00:19;97280.22;;;19.38;38.77
42727;BME280;28372;56.832;60.658;2023-06-24T03:03:15;97277.84;;;19.62;38.65
42727;BME280;28372;56.832;60.658;2023-06-24T03:05:50;97287.00;;;20.03;38.11
42727;BME280;28372;56.832;60.658;2023-06-24T03:08:22;97284.00;;;21.04;36.59
42727;BME280;28372;56.832;60.658;2023-06-24T03:10:54;97289.88;;;22.18;35.13
42727;BME280;28372;56.832;60.658;2023-06-24T03:13:25;97279.44;;;22.40;34.73
42727;BME280;28372;56.832;60.658;2023-06-24T03:16:00;97282.06;;;24.14;31.61
42727;BME280;28372;56.832;60.658;2023-06-24T03:18:32;97284.69;;;24.83;30.40
42727;BME280;28372;56.832;60.658;2023-06-24T03:20:59;97285.94;;;25.79;28.97
42727;BME280;28372;56.832;60.658;2023-06-24T03:23:29;97293.31;;;26.66;27.75
42727;BME280;28372;56.832;60.658;2023-06-24T03:25:58;97290.03;;;27.43;27.00
42727;BME280;28372;56.832;60.658;2023-06-24T03:28:27;97284.97;;;28.25;25.56
42727;BME280;28372;56.832;60.658;2023-06-24T03:31:06;97290.78;;;28.95;24.86
42727;BME280;28372;56.832;60.658;2023-06-24T03:33:34;97292.59;;;29.62;24.13
42727;BME280;28372;56.832;60.658;2023-06-24T03:36:02;97280.66;;;30.20;23.42
42727;BME280;28372;56.832;60.658;2023-06-24T03:38:33;97289.63;;;30.74;23.03
42727;BME280;28372;56.832;60.658;2023-06-24T03:41:00;97289.81;;;31.31;21.97
42727;BME280;28372;56.832;60.658;2023-06-24T03:43:28;97291.91;;;31.88;21.43
42727;BME280;28372;56.832;60.658;2023-06-24T03:45:56;97291.53;;;32.49;20.74
42727;BME280;28372;56.832;60.658;2023-06-24T03:48:24;97293.47;;;32.86;20.10
42727;BME280;28372;56.832;60.658;2023-06-24T03:51:09;97295.56;;;33.39;19.93
42727;BME280;28372;56.832;60.658;2023-06-24T03:53:38;97289.38;;;33.81;18.93
42727;BME280;28372;56.832;60.658;2023-06-24T03:56:06;97289.91;;;34.14;18.46
42727;BME280;28372;56.832;60.658;2023-06-24T03:58:34;97289.81;;;34.41;18.44
42727;BME280;28372;56.832;60.658;2023-06-24T04:01:02;97298.72;;;34.74;18.21
42727;BME280;28372;56.832;60.658;2023-06-24T04:03:30;97297.84;;;35.08;18.00
42727;BME280;28372;56.832;60.658;2023-06-24T04:06:00;97295.47;;;35.48;17.28
42727;BME280;28372;56.832;60.658;2023-06-24T04:08:29;97287.56;;;35.83;17.28
42727;BME280;28372;56.832;60.658;2023-06-24T04:10:57;97300.22;;;36.29;16.43
42727;BME280;28372;56.832;60.658;2023-06-24T04:13:31;97297.47;;;36.60;16.49
42727;BME280;28372;56.832;60.658;2023-06-24T04:16:01;97306.84;;;36.78;16.23
42727;BME280;28372;56.832;60.658;2023-06-24T04:18:29;97287.50;;;36.97;15.38
42727;BME280;28372;56.832;60.658;2023-06-24T04:20:57;97292.16;;;37.26;15.24
42727;BME280;28372;56.832;60.658;2023-06-24T04:23:25;97295.66;;;37.57;15.36
42727;BME280;28372;56.832;60.658;2023-06-24T04:25:53;97286.72;;;37.84;14.80
42727;BME280;28372;56.832;60.658;2023-06-24T04:28:21;97290.38;;;38.02;15.14
42727;BME280;28372;56.832;60.658;2023-06-24T04:30:50;97286.28;;;38.28;15.21
42727;BME280;28372;56.832;60.658;2023-06-24T04:33:18;97286.03;;;38.59;14.43
42727;BME280;28372;56.832;60.658;2023-06-24T04:35:46;97284.56;;;38.83;14.07
42727;BME280;28372;56.832;60.658;2023-06-24T04:38:14;97284.84;;;39.13;14.17
42727;BME280;28372;56.832;60.658;2023-06-24T04:40:47;97266.81;;;39.26;13.83
42727;BME280;28372;56.832;60.658;2023-06-24T04:43:15;97270.53;;;39.46;13.50
42727;BME280;28372;56.832;60.658;2023-06-24T04:45:42;97272.41;;;39.78;13.29
42727;BME280;28372;56.832;60.658;2023-06-24T04:48:10;97273.69;;;39.95;12.56
42727;BME280;28372;56.832;60.658;2023-06-24T04:50:38;97272.59;;;40.07;12.80
42727;BME280;28372;56.832;60.658;2023-06-24T04:53:06;97280.75;;;40.31;12.42
42727;BME280;28372;56.832;60.658;2023-06-24T04:55:33;97283.75;;;40.42;12.29
42727;BME280;28372;56.832;60.658;2023-06-24T04:58:01;97278.16;;;40.52;12.18
42727;BME280;28372;56.832;60.658;2023-06-24T05:00:29;97270.00;;;40.66;11.98
42727;BME280;28372;56.832;60.658;2023-06-24T05:02:57;97275.59;;;40.93;12.07
42727;BME280;28372;56.832;60.658;2023-06-24T05:05:25;97284.56;;;41.29;11.79
42727;BME280;28372;56.832;60.658;2023-06-24T05:07:52;97278.16;;;41.38;11.65
42727;BME280;28372;56.832;60.658;2023-06-24T05:10:20;97279.34;;;41.45;11.58
42727;BME280;28372;56.832;60.658;2023-06-24T05:12:48;97267.56;;;41.58;11.24
42727;BME280;28372;56.832;60.658;2023-06-24T05:15:15;97263.59;;;41.93;10.93
42727;BME280;28372;56.832;60.658;2023-06-24T05:17:43;97267.59;;;42.09;10.77
42727;BME280;28372;56.832;60.658;2023-06-24T05:20:11;97262.47;;;42.18;10.19
42727;BME280;28372;56.832;60.658;2023-06-24T05:22:39;97258.44;;;42.21;10.18
42727;BME280;28372;56.832;60.658;2023-06-24T05:25:07;97268.28;;;42.29;10.47
42727;BME280;28372;56.832;60.658;2023-06-24T05:27:35;97265.63;;;42.22;10.64
42727;BME280;28372;56.832;60.658;2023-06-24T05:30:02;97265.03;;;42.14;10.72
42727;BME280;28372;56.832;60.658;2023-06-24T05:32:32;97258.00;;;42.24;10.19
42727;BME280;28372;56.832;60.658;2023-06-24T05:35:00;97261.28;;;42.21;10.17
42727;BME280;28372;56.832;60.658;2023-06-24T05:37:30;97257.00;;;42.41;10.72
42727;BME280;28372;56.832;60.658;2023-06-24T05:39:57;97261.34;;;42.42;10.22
42727;BME280;28372;56.832;60.658;2023-06-24T05:42:30;97262.38;;;42.47;9.75
42727;BME280;28372;56.832;60.658;2023-06-24T05:44:57;97272.19;;;42.56;10.39
42727;BME280;28372;56.832;60.658;2023-06-24T05:47:25;97257.53;;;42.81;10.39
42727;BME280;28372;56.832;60.658;2023-06-24T05:49:53;97252.47;;;43.01;10.09
42727;BME280;28372;56.832;60.658;2023-06-24T05:52:20;97263.66;;;43.09;9.95
42727;BME280;28372;56.832;60.658;2023-06-24T05:54:48;97267.94;;;43.20;10.18
42727;BME280;28372;56.832;60.658;2023-06-24T05:57:16;97264.50;;;43.33;9.50
42727;BME280;28372;56.832;60.658;2023-06-24T05:59:43;97260.63;;;43.50;9.77
42727;BME280;28372;56.832;60.658;2023-06-24T06:02:11;97265.47;;;43.47;9.73
42727;BME280;28372;56.832;60.658;2023-06-24T06:04:39;97262.28;;;43.65;9.22
42727;BME280;28372;56.832;60.658;2023-06-24T06:07:06;97263.44;;;43.84;9.58
42727;BME280;28372;56.832;60.658;2023-06-24T06:09:34;97264.47;;;44.00;9.23
42727;BME280;28372;56.832;60.658;2023-06-24T06:12:02;97263.38;;;44.05;9.16
42727;BME280;28372;56.832;60.658;2023-06-24T06:14:30;97260.16;;;44.23;9.20
42727;BME280;28372;56.832;60.658;2023-06-24T06:16:57;97252.13;;;44.31;9.28
42727;BME280;28372;56.832;60.658;2023-06-24T06:19:25;97256.22;;;44.40;8.89
42727;BME280;28372;56.832;60.658;2023-06-24T06:21:52;97256.06;;;44.49;9.00
42727;BME280;28372;56.832;60.658;2023-06-24T06:24:20;97253.59;;;44.56;9.47
42727;BME280;28372;56.832;60.658;2023-06-24T06:26:48;97260.53;;;44.53;9.06
42727;BME280;28372;56.832;60.658;2023-06-24T06:29:15;97258.19;;;44.37;8.51
42727;BME280;28372;56.832;60.658;2023-06-24T06:31:43;97247.41;;;44.36;9.05
42727;BME280;28372;56.832;60.658;2023-06-24T06:34:11;97251.50;;;44.44;8.67
42727;BME280;28372;56.832;60.658;2023-06-24T06:36:38;97257.94;;;44.57;9.62
42727;BME280;28372;56.832;60.658;2023-06-24T06:39:06;97267.25;;;44.69;8.64
42727;BME280;28372;56.832;60.658;2023-06-24T06:41:34;97259.66;;;44.62;8.75
42727;BME280;28372;56.832;60.658;2023-06-24T06:44:01;97260.41;;;44.74;9.14
42727;BME280;28372;56.832;60.658;2023-06-24T06:46:30;97257.59;;;45.00;8.47
42727;BME280;28372;56.832;60.658;2023-06-24T06:48:58;97262.19;;;45.05;8.19
42727;BME280;28372;56.832;60.658;2023-06-24T06:51:27;97255.38;;;44.98;8.80
42727;BME280;28372;56.832;60.658;2023-06-24T06:53:54;97252.34;;;44.82;8.28
42727;BME280;28372;56.832;60.658;2023-06-24T06:56:23;97263.38;;;44.53;8.67
42727;BME280;28372;56.832;60.658;2023-06-24T06:58:52;97256.06;;;44.49;8.82
42727;BME280;28372;56.832;60.658;2023-06-24T07:01:20;97263.38;;;44.76;8.54
42727;BME280;28372;56.832;60.658;2023-06-24T07:03:49;97271.25;;;45.02;8.14
42727;BME280;28372;56.832;60.658;2023-06-24T07:06:18;97263.63;;;44.80;7.79
42727;BME280;28372;56.832;60.658;2023-06-24T07:08:46;97250.84;;;44.81;8.34
42727;BME280;28372;56.832;60.658;2023-06-24T07:11:14;97246.63;;;44.82;8.40
42727;BME280;28372;56.832;60.658;2023-06-24T07:13:42;97245.69;;;45.04;8.27
42727;BME280;28372;56.832;60.658;2023-06-24T07:16:09;97239.97;;;45.15;8.23
42727;BME280;28372;56.832;60.658;2023-06-24T07:18:37;97249.78;;;45.12;8.00
42727;BME280;28372;56.832;60.658;2023-06-24T07:21:05;97249.38;;;45.18;8.13
42727;BME280;28372;56.832;60.658;2023-06-24T07:23:32;97251.31;;;44.90;8.08
42727;BME280;28372;56.832;60.658;2023-06-24T07:26:00;97249.00;;;44.74;8.04
42727;BME280;28372;56.832;60.658;2023-06-24T07:28:30;97245.91;;;44.58;8.35
42727;BME280;28372;56.832;60.658;2023-06-24T07:30:58;97248.03;;;44.34;8.52
42727;BME280;28372;56.832;60.658;2023-06-24T07:33:25;97241.47;;;44.08;8.29
42727;BME280;28372;56.832;60.658;2023-06-24T07:35:54;97238.88;;;43.67;8.82
42727;BME280;28372;56.832;60.658;2023-06-24T07:38:21;97239.22;;;43.16;8.96
42727;BME280;28372;56.832;60.658;2023-06-24T07:40:49;97241.06;;;42.58;9.08
42727;BME280;28372;56.832;60.658;2023-06-24T07:43:16;97243.97;;;42.07;8.80
42727;BME280;28372;56.832;60.658;2023-06-24T07:45:44;97245.78;;;41.41;9.49
42727;BME280;28372;56.832;60.658;2023-06-24T07:48:12;97241.97;;;40.90;9.37
42727;BME280;28372;56.832;60.658;2023-06-24T07:50:39;97236.94;;;40.41;10.05
42727;BME280;28372;56.832;60.658;2023-06-24T07:53:07;97236.59;;;40.00;10.09
42727;BME280;28372;56.832;60.658;2023-06-24T07:55:35;97231.75;;;39.56;10.05
42727;BME280;28372;56.832;60.658;2023-06-24T07:58:03;97232.25;;;39.10;10.37
42727;BME280;28372;56.832;60.658;2023-06-24T08:00:31;97234.75;;;38.88;10.72
42727;BME280;28372;56.832;60.658;2023-06-24T08:02:59;97238.72;;;38.42;11.39
42727;BME280;28372;56.832;60.658;2023-06-24T08:05:27;97227.41;;;38.17;11.49
42727;BME280;28372;56.832;60.658;2023-06-24T08:07:55;97228.16;;;37.92;11.43
42727;BME280;28372;56.832;60.658;2023-06-24T08:10:22;97229.03;;;37.69;11.10
42727;BME280;28372;56.832;60.658;2023-06-24T08:12:50;97225.91;;;37.50;11.37
42727;BME280;28372;56.832;60.658;2023-06-24T08:15:18;97210.59;;;37.20;11.76
42727;BME280;28372;56.832;60.658;2023-06-24T08:17:53;97234.97;;;37.41;11.09
42727;BME280;28372;56.832;60.658;2023-06-24T08:20:22;97225.16;;;36.78;11.94
42727;BME280;28372;56.832;60.658;2023-06-24T08:22:50;97231.91;;;36.28;11.96
42727;BME280;28372;56.832;60.658;2023-06-24T08:25:18;97229.84;;;36.60;11.90
42727;BME280;28372;56.832;60.658;2023-06-24T08:27:46;97222.22;;;35.70;12.47
42727;BME280;28372;56.832;60.658;2023-06-24T08:30:14;97223.31;;;35.14;12.67
42727;BME280;28372;56.832;60.658;2023-06-24T08:32:42;97218.28;;;34.84;12.94
42727;BME280;28372;56.832;60.658;2023-06-24T08:35:10;97224.63;;;34.56;12.77
42727;BME280;28372;56.832;60.658;2023-06-24T08:37:38;97222.25;;;34.39;13.28
42727;BME280;28372;56.832;60.658;2023-06-24T08:40:06;97209.75;;;34.26;12.80
42727;BME280;28372;56.832;60.658;2023-06-24T08:42:34;97210.88;;;34.02;13.35
42727;BME280;28372;56.832;60.658;2023-06-24T08:45:02;97216.69;;;33.70;13.38
42727;BME280;28372;56.832;60.658;2023-06-24T08:47:31;97212.44;;;33.42;13.44
42727;BME280;28372;56.832;60.658;2023-06-24T08:50:05;97214.78;;;33.51;14.01
42727;BME280;28372;56.832;60.658;2023-06-24T08:52:36;97210.09;;;33.33;13.76
42727;BME280;28372;56.832;60.658;2023-06-24T08:55:06;97208.97;;;33.49;13.75
42727;BME280;28372;56.832;60.658;2023-06-24T08:57:36;97203.22;;;33.07;14.09
42727;BME280;28372;56.832;60.658;2023-06-24T09:00:04;97200.34;;;33.47;13.45
42727;BME280;28372;56.832;60.658;2023-06-24T09:02:37;97206.66;;;33.00;13.57
42727;BME280;28372;56.832;60.658;2023-06-24T09:05:06;97197.34;;;32.38;14.37
42727;BME280;28372;56.832;60.658;2023-06-24T09:07:35;97186.03;;;31.78;14.57
42727;BME280;28372;56.832;60.658;2023-06-24T09:10:03;97188.16;;;31.53;15.39
42727;BME280;28372;56.832;60.658;2023-06-24T09:12:33;97193.16;;;31.41;14.91
42727;BME280;28372;56.832;60.658;2023-06-24T09:15:02;97196.06;;;31.11;14.97
42727;BME280;28372;56.832;60.658;2023-06-24T09:17:43;97184.31;;;31.37;14.68
42727;BME280;28372;56.832;60.658;2023-06-24T09:20:11;97187.03;;;30.80;14.79
42727;BME280;28372;56.832;60.658;2023-06-24T09:22:42;97187.31;;;30.77;15.03
42727;BME280;28372;56.832;60.658;2023-06-24T09:25:16;97187.88;;;30.94;15.86
42727;BME280;28372;56.832;60.658;2023-06-24T09:27:49;97178.78;;;30.69;16.08
42727;BME280;28372;56.832;60.658;2023-06-24T09:30:21;97186.06;;;30.53;16.42
42727;BME280;28372;56.832;60.658;2023-06-24T09:32:50;97182.63;;;30.35;15.56
42727;BME280;28372;56.832;60.658;2023-06-24T09:35:25;97177.69;;;30.53;15.24
42727;BME280;28372;56.832;60.658;2023-06-24T09:37:55;97183.56;;;30.19;15.75
42727;BME280;28372;56.832;60.658;2023-06-24T09:40:23;97172.19;;;30.11;14.98
42727;BME280;28372;56.832;60.658;2023-06-24T09:42:53;97166.72;;;30.00;14.82
42727;BME280;28372;56.832;60.658;2023-06-24T09:45:26;97168.75;;;29.99;16.12
42727;BME280;28372;56.832;60.658;2023-06-24T09:47:56;97173.09;;;29.95;16.20
42727;BME280;28372;56.832;60.658;2023-06-24T09:50:25;97165.25;;;29.93;16.27
42727;BME280;28372;56.832;60.658;2023-06-24T09:52:53;97164.50;;;29.93;16.35
42727;BME280;28372;56.832;60.658;2023-06-24T09:55:22;97160.28;;;29.74;16.33
42727;BME280;28372;56.832;60.658;2023-06-24T09:57:51;97165.75;;;29.92;16.38
42727;BME280;28372;56.832;60.658;2023-06-24T10:00:20;97157.22;;;29.78;16.81
42727;BME280;28372;56.832;60.658;2023-06-24T10:02:52;97153.94;;;29.80;16.11
42727;BME280;28372;56.832;60.658;2023-06-24T10:05:22;97162.59;;;29.70;16.48
42727;BME280;28372;56.832;60.658;2023-06-24T10:07:50;97155.63;;;29.52;16.26
42727;BME280;28372;56.832;60.658;2023-06-24T10:10:17;97151.22;;;29.21;16.90
42727;BME280;28372;56.832;60.658;2023-06-24T10:12:45;97148.25;;;29.08;16.86
42727;BME280;28372;56.832;60.658;2023-06-24T10:15:12;97154.88;;;28.99;17.19
42727;BME280;28372;56.832;60.658;2023-06-24T10:17:41;97152.88;;;28.88;17.21
42727;BME280;28372;56.832;60.658;2023-06-24T10:20:09;97159.78;;;28.76;17.41
42727;BME280;28372;56.832;60.658;2023-06-24T10:22:37;97149.94;;;28.63;17.68
42727;BME280;28372;56.832;60.658;2023-06-24T10:25:06;97145.38;;;28.66;17.18
42727;BME280;28372;56.832;60.658;2023-06-24T10:27:39;97155.00;;;28.65;17.08
42727;BME280;28372;56.832;60.658;2023-06-24T10:30:07;97155.53;;;28.35;17.43
42727;BME280;28372;56.832;60.658;2023-06-24T10:32:42;97155.00;;;28.48;17.65
42727;BME280;28372;56.832;60.658;2023-06-24T10:35:27;97147.38;;;28.60;18.15
42727;BME280;28372;56.832;60.658;2023-06-24T10:38:01;97154.75;;;28.34;18.72
42727;BME280;28372;56.832;60.658;2023-06-24T10:40:36;97154.50;;;28.49;18.36
42727;BME280;28372;56.832;60.658;2023-06-24T10:43:27;97148.41;;;28.68;18.01
42727;BME280;28372;56.832;60.658;2023-06-24T10:45:57;97139.84;;;28.37;18.29
42727;BME280;28372;56.832;60.658;2023-06-24T10:48:25;97143.41;;;28.27;18.50
42727;BME280;28372;56.832;60.658;2023-06-24T10:50:53;97147.22;;;28.12;19.17
42727;BME280;28372;56.832;60.658;2023-06-24T10:53:21;97138.84;;;28.18;19.47
42727;BME280;28372;56.832;60.658;2023-06-24T10:55:49;97147.47;;;28.26;19.54
42727;BME280;28372;56.832;60.658;2023-06-24T10:58:17;97145.94;;;28.25;19.68
42727;BME280;28372;56.832;60.658;2023-06-24T11:00:45;97150.47;;;28.28;20.02
42727;BME280;28372;56.832;60.658;2023-06-24T11:03:16;97155.28;;;28.33;19.80
42727;BME280;28372;56.832;60.658;2023-06-24T11:05:45;97153.00;;;28.31;19.95
42727;BME280;28372;56.832;60.658;2023-06-24T11:08:13;97153.00;;;28.31;19.51
42727;BME280;28372;56.832;60.658;2023-06-24T11:10:46;97156.78;;;28.45;19.84
42727;BME280;28372;56.832;60.658;2023-06-24T11:13:15;97149.50;;;28.25;20.55
42727;BME280;28372;56.832;60.658;2023-06-24T11:15:42;97135.09;;;28.21;20.38
42727;BME280;28372;56.832;60.658;2023-06-24T11:18:11;97134.31;;;28.20;20.57
42727;BME280;28372;56.832;60.658;2023-06-24T11:20:39;97135.34;;;28.17;20.46
42727;BME280;28372;56.832;60.658;2023-06-24T11:23:10;97136.09;;;28.18;20.67
42727;BME280;28372;56.832;60.658;2023-06-24T11:25:42;97139.88;;;28.20;20.88
42727;BME280;28372;56.832;60.658;2023-06-24T11:28:17;97137.88;;;28.21;20.66
42727;BME280;28372;56.832;60.658;2023-06-24T11:30:49;97120.41;;;27.81;20.64
42727;BME280;28372;56.832;60.658;2023-06-24T11:33:27;97122.97;;;28.07;20.71
42727;BME280;28372;56.832;60.658;2023-06-24T11:35:56;97117.38;;;27.79;21.12
42727;BME280;28372;56.832;60.658;2023-06-24T11:38:23;97112.31;;;27.72;20.94
42727;BME280;28372;56.832;60.658;2023-06-24T11:40:51;97111.34;;;27.69;20.85
42727;BME280;28372;56.832;60.658;2023-06-24T11:43:20;97118.16;;;27.68;21.51
42727;BME280;28372;56.832;60.658;2023-06-24T11:45:48;97112.31;;;27.66;21.09
42727;BME280;28372;56.832;60.658;2023-06-24T11:48:16;97115.09;;;27.66;20.93
42727;BME280;28372;56.832;60.658;2023-06-24T11:50:43;97110.56;;;27.63;20.72
42727;BME280;28372;56.832;60.658;2023-06-24T11:53:11;97110.06;;;27.59;20.71
42727;BME280;28372;56.832;60.658;2023-06-24T11:55:38;97096.91;;;27.48;20.41
42727;BME280;28372;56.832;60.658;2023-06-24T11:58:06;97109.81;;;27.51;20.17
42727;BME280;28372;56.832;60.658;2023-06-24T12:00:41;97112.31;;;27.66;20.14
42727;BME280;28372;56.832;60.658;2023-06-24T12:03:11;97111.56;;;27.43;20.37
42727;BME280;28372;56.832;60.658;2023-06-24T12:05:40;97120.13;;;27.45;20.49
42727;BME280;28372;56.832;60.658;2023-06-24T12:08:13;97114.56;;;27.39;20.69
42727;BME280;28372;56.832;60.658;2023-06-24T12:10:44;97114.28;;;27.31;21.21
42727;BME280;28372;56.832;60.658;2023-06-24T12:13:12;97108.97;;;27.33;20.82
42727;BME280;28372;56.832;60.658;2023-06-24T12:15:40;97115.78;;;27.32;21.06
42727;BME280;28372;56.832;60.658;2023-06-24T12:18:08;97112.03;;;27.30;21.52
42727;BME280;28372;56.832;60.658;2023-06-24T12:20:36;97117.56;;;27.30;21.87
42727;BME280;28372;56.832;60.658;2023-06-24T12:23:06;97112.25;;;27.32;21.78
42727;BME280;28372;56.832;60.658;2023-06-24T12:25:33;97107.72;;;27.34;21.88
42727;BME280;28372;56.832;60.658;2023-06-24T12:28:01;97118.59;;;27.38;21.96
42727;BME280;28372;56.832;60.658;2023-06-24T12:30:29;97116.59;;;27.44;21.54
42727;BME280;28372;56.832;60.658;2023-06-24T12:32:56;97118.38;;;27.47;21.77
42727;BME280;28372;56.832;60.658;2023-06-24T12:35:24;97116.09;;;27.51;21.37
42727;BME280;28372;56.832;60.658;2023-06-24T12:37:55;97118.38;;;27.53;21.38
42727;BME280;28372;56.832;60.658;2023-06-24T12:40:23;97121.16;;;27.53;21.13
42727;BME280;28372;56.832;60.658;2023-06-24T12:42:51;97124.44;;;27.51;20.52
42727;BME280;28372;56.832;60.658;2023-06-24T12:45:18;97119.63;;;27.52;20.32
42727;BME280;28372;56.832;60.658;2023-06-24T12:47:47;97125.69;;;27.50;20.49
42727;BME280;28372;56.832;60.658;2023-06-24T12:50:14;97125.16;;;27.41;20.59
42727;BME280;28372;56.832;60.658;2023-06-24T12:52:42;97123.63;;;27.34;20.53
42727;BME280;28372;56.832;60.658;2023-06-24T12:55:10;97115.25;;;27.23;20.53
42727;BME280;28372;56.832;60.658;2023-06-24T12:57:41;97124.09;;;27.27;20.05
42727;BME280;28372;56.832;60.658;2023-06-24T13:00:09;97134.44;;;27.21;19.89
42727;BME280;28372;56.832;60.658;2023-06-24T13:02:38;97123.31;;;27.09;20.07
42727;BME280;28372;56.832;60.658;2023-06-24T13:05:06;97124.56;;;27.02;20.23
42727;BME280;28372;56.832;60.658;2023-06-24T13:07:34;97118.75;;;27.00;20.05
42727;BME280;28372;56.832;60.658;2023-06-24T13:10:04;97117.72;;;26.92;20.09
42727;BME280;28372;56.832;60.658;2023-06-24T13:12:34;97120.22;;;26.90;20.21
42727;BME280;28372;56.832;60.658;2023-06-24T13:15:05;97127.03;;;26.89;19.78
42727;BME280;28372;56.832;60.658;2023-06-24T13:17:33;97130.25;;;26.76;19.85
42727;BME280;28372;56.832;60.658;2023-06-24T13:20:01;97135.19;;;26.61;19.92
42727;BME280;28372;56.832;60.658;2023-06-24T13:22:32;97142.19;;;26.50;22.11